Time;durP1;ratioP1;P1;durP2;ratioP2;P2;SDS_P1;SDS_P2;PMS_P1;PMS_P2;Temp;Humidity;BMP_temperature;BMP_pressure;BME280_temperature;BME280_humidity;BME280_pressure;Samples;Min_cycle;Max_cycle;Signal;HPM_P1;HPM_P2
2021/12/09 09:55:49;;;;;;;8.47;5.90;;;;;;;4.13;66.33;93838.44;2610021;54;20212;-82
2021/12/09 09:58:19;;;;;;;10.43;6.47;;;;;;;2.93;68.46;93641.44;2621485;47;20680;-85
2021/12/09 10:00:49;;;;;;;4.43;4.13;;;;;;;4.18;74.50;93783.31;2620580;47;20711;-86
2021/12/09 10:03:27;;;;;;;5.00;4.60;;;;;;;4.27;63.21;93805.44;2624350;47;20153;-86
2021/12/09 10:05:57;;;;;;;6.77;6.27;;;;;;;4.58;63.93;93764.63;2623642;39;20765;-85
2021/12/09 10:08:34;;;;;;;2.60;2.47;;;;;;;6.38;69.83;93965.34;2622745;47;20156;-85
2021/12/09 10:11:06;;;;;;;5.93;5.47;;;;;;;5.72;62.79;93913.66;2622445;47;20152;-85
2021/12/09 10:13:38;;;;;;;8.77;5.60;;;;;;;4.83;68.79;93929.00;2625171;54;20163;-82
2021/12/09 10:16:18;;;;;;;7.07;5.43;;;;;;;3.63;65.87;93834.16;2622532;54;20149;-86
2021/12/09 10:19:18;;;;;;;5.10;4.60;;;;;;;3.74;68.73;93620.44;2622720;54;20680;-85
2021/12/09 10:21:48;;;;;;;5.87;4.60;;;;;;;5.49;64.41;93796.19;2621659;47;20149;-85
2021/12/09 10:27:18;;;;;;;12.47;4.30;;;;;;;4.89;68.12;93638.22;2618150;47;20173;-82
2021/12/09 10:30:14;;;;;;;7.60;6.33;;;;;;;5.89;60.39;93892.53;2618208;47;20176;-78
2021/12/09 10:33:22;;;;;;;11.00;5.03;;;;;;;5.67;68.28;93780.03;2618236;47;20200;-76
2021/12/09 10:35:51;;;;;;;6.30;5.77;;;;;;;7.03;61.67;93908.53;2617351;47;20145;-81
2021/12/09 10:38:29;;;;;;;6.13;5.67;;;;;;;6.40;57.44;93751.69;2618242;47;20149;-80
2021/12/09 10:40:58;;;;;;;6.63;5.17;;;;;;;5.99;67.89;93630.81;2617030;46;21005;-82
2021/12/09 10:43:29;;;;;;;7.83;4.93;;;;;;;6.68;62.22;93753.97;2617345;54;20171;-82
2021/12/09 10:45:58;;;;;;;9.40;5.83;;;;;;;6.88;64.38;93852.41;2618535;47;20169;-81
2021/12/09 10:51:55;;;;;;;7.03;4.93;;;;;;;5.97;65.93;93603.38;2622109;47;20109;-81
2021/12/09 10:54:37;;;;;;;10.50;6.30;;;;;;;8.54;61.49;93906.13;2620216;39;20704;-85
2021/12/09 10:57:38;;;;;;;;;;;;;;;;;;;;;
2021/12/09 11:00:28;;;;;;;7.90;4.83;;;;;;;6.63;64.46;93738.34;2618469;54;20161;-83
2021/12/09 11:03:16;;;;;;;6.77;4.77;;;;;;;6.44;62.04;93739.81;2616180;54;20252;-81
2021/12/09 11:05:50;;;;;;;7.90;6.73;;;;;;;7.63;67.78;93849.16;2616769;47;20153;-81
2021/12/09 11:08:29;;;;;;;5.40;4.90;;;;;;;6.53;59.39;93718.31;2616335;54;20156;-82
2021/12/09 11:11:06;;;;;;;11.47;6.33;;;;;;;6.42;69.24;93560.47;2616468;54;20163;-81
2021/12/09 11:14:05;;;;;;;5.77;4.37;;;;;;;7.82;63.15;93921.59;2617985;47;20248;-83
2021/12/09 11:16:39;;;;;;;10.30;7.07;;;;;;;5.74;59.54;93917.91;2618180;54;20157;-83
2021/12/09 11:19:25;;;;;;;8.97;5.73;;;;;;;6.47;65.62;93850.31;2620688;47;20151;-83
2021/12/09 11:21:57;;;;;;;9.77;8.40;;;;;;;6.06;70.74;93837.63;2621320;46;21092;-81
2021/12/09 11:24:30;;;;;;;9.90;6.00;;;;;;;5.60;63.35;93837.34;2618224;54;20152;-81
2021/12/09 11:27:02;;;;;;;6.33;5.93;;;;;;;7.43;72.62;93891.50;2618184;47;20161;-80
2021/12/09 11:29:42;;;;;;;8.57;6.30;;;;;;;7.17;69.69;93763.94;2617815;47;20157;-80
2021/12/09 11:32:19;;;;;;;5.30;4.67;;;;;;;7.79;61.06;93847.50;2620726;46;20156;-84
2021/12/09 11:35:01;;;;;;;6.37;5.90;;;;;;;8.66;64.41;93859.84;2619400;47;20153;-84
2021/12/09 11:37:45;;;;;;;12.40;6.83;;;;;;;7.90;66.95;93716.06;2616891;39;20559;-81
2021/12/09 11:40:24;;;;;;;6.23;5.43;;;;;;;8.83;61.88;93889.94;2619768;54;20160;-81
2021/12/09 11:43:06;;;;;;;8.53;7.87;;;;;;;7.25;57.29;93730.38;2618632;47;20144;-82
2021/12/09 11:45:38;;;;;;;4.63;4.20;;;;;;;7.61;71.40;93838.53;2618772;54;20800;-81
2021/12/09 11:48:12;;;;;;;8.73;5.93;;;;;;;8.21;58.85;93923.47;2618746;54;20145;-82
2021/12/09 11:53:35;;;;;;;9.70;6.13;;;;;;;7.22;64.65;93726.09;2618370;46;20257;-81
2021/12/09 11:56:08;;;;;;;5.67;4.57;;;;;;;6.92;69.21;93613.28;2617144;39;20633;-83
2021/12/09 12:11:07;;;;;;;5.47;4.97;;;;;;;6.65;71.85;93766.53;2618084;39;20565;-82
2021/12/09 12:13:51;;;;;;;6.13;5.63;;;;;;;6.70;66.96;93583.09;2618885;47;20656;-82
2021/12/09 12:19:56;;;;;;;7.03;6.40;;;;;;;9.14;67.72;93801.06;2618351;47;20248;-81
2021/12/09 12:23:10;;;;;;;12.63;6.83;;;;;;;7.88;68.05;93563.06;2619166;46;20192;-80
2021/12/09 12:37:54;;;;;;;20.13;8.70;;;;;;;8.24;67.04;93679.56;2619343;39;20516;-80
2021/12/09 12:40:27;;;;;;;12.83;10.97;;;;;;;7.62;56.66;93656.81;2618446;54;20172;-81
2021/12/09 12:43:02;;;;;;;9.43;8.47;;;;;;;7.31;70.33;93651.72;2618981;47;20152;-82
2021/12/09 12:45:43;;;;;;;12.93;6.97;;;;;;;8.70;65.26;93790.09;2619153;54;20149;-80
2021/12/09 12:48:44;;;;;;;11.93;5.43;;;;;;;7.50;57.16;93670.56;2618963;47;20200;-82
2021/12/09 12:51:18;;;;;;;13.80;7.90;;;;;;;8.89;68.04;93743.97;2618767;47;20156;-84
2021/12/09 12:53:56;;;;;;;15.33;8.40;;;;;;;8.22;59.55;93834.63;2619029;54;20166;-80
2021/12/09 12:56:31;;;;;;;11.43;9.50;;;;;;;5.93;59.67;93547.03;2620272;54;20156;-84
2021/12/09 13:03:25;;;;;;;11.20;7.70;;;;;;;5.72;72.04;93542.13;2626844;47;20149;-83
2021/12/09 13:26:25;;;;;;;18.37;6.50;;;;;;;8.45;75.97;93825.44;2618813;47;20157;-83
2021/12/09 13:29:06;;;;;;;7.43;6.83;;;;;;;8.75;63.17;93831.16;2620665;54;20255;-85
2021/12/09 13:31:59;;;;;;;12.87;10.30;;;;;;;6.81;61.34;93802.94;2621116;54;20157;-83
2021/12/09 13:34:40;;;;;;;7.40;6.73;;;;;;;5.33;64.20;93509.94;2621959;47;20152;-80
2021/12/09 13:48:17;;;;;;;14.80;7.30;;;;;;;7.81;71.98;93639.00;2621335;47;20165;-85
2021/12/09 13:50:54;;;;;;;8.50;6.43;;;;;;;9.27;60.84;93814.81;2618897;54;20179;-81
2021/12/09 13:56:32;;;;;;;10.27;7.07;;;;;;;7.67;71.62;93666.78;2618939;47;20672;-81
2021/12/09 13:59:01;;;;;;;11.93;10.27;;;;;;;5.05;61.60;93612.13;2618649;54;20148;-82
2021/12/09 14:01:30;;;;;;;7.63;6.67;;;;;;;3.96;64.60;93614.31;2618940;54;20234;-80
2021/12/09 14:03:59;;;;;;;20.03;8.50;;;;;;;4.41;68.56;93787.75;2618368;47;20670;-82
2021/12/09 14:06:38;;;;;;;8.93;8.23;;;;;;;3.31;71.75;93626.31;2618727;54;20157;-83
2021/12/09 14:09:07;;;;;;;8.27;6.40;;;;;;;3.89;76.69;93456.47;2618424;54;20148;-80
2021/12/09 14:11:45;;;;;;;8.80;6.93;;;;;;;7.67;76.18;93813.34;2618827;54;20169;-79
2021/12/09 14:14:23;;;;;;;5.83;5.33;;;;;;;6.25;71.92;93502.34;2619529;39;20578;-80
2021/12/09 14:16:57;;;;;;;11.90;9.17;;;;;;;8.59;67.65;93782.06;2619086;54;20672;-82
2021/12/09 14:22:11;;;;;;;14.50;8.77;;;;;;;6.66;71.40;93551.34;2624436;47;20656;-85
2021/12/09 14:24:45;;;;;;;10.03;8.93;;;;;;;7.23;58.84;93666.28;2622189;47;20149;-81
2021/12/09 14:27:21;;;;;;;9.10;7.37;;;;;;;5.72;66.18;93475.41;2619579;47;20680;-84
2021/12/09 14:29:52;;;;;;;9.60;7.37;;;;;;;6.16;63.60;93618.00;2620773;54;20148;-86
2021/12/09 14:32:23;;;;;;;9.53;8.60;;;;;;;7.48;66.20;93823.38;2620290;54;20149;-85
2021/12/09 14:34:54;;;;;;;10.33;7.93;;;;;;;6.95;69.77;93687.97;2619659;54;20153;-81
2021/12/09 14:37:23;;;;;;;6.67;6.17;;;;;;;7.89;66.57;93806.94;2620022;54;20164;-83
2021/12/09 14:40:07;;;;;;;25.70;9.57;;;;;;;7.34;61.60;93805.31;2620191;54;20248;-83
2021/12/09 14:42:50;;;;;;;12.40;7.77;;;;;;;6.87;62.26;93645.50;2621521;39;20605;-82
2021/12/09 14:45:21;;;;;;;22.67;14.98;;;;;;;7.79;61.24;93784.81;2623102;54;20415;-86
2021/12/09 14:48:00;;;;;;;20.27;10.43;;;;;;;4.45;65.54;93600.09;2624591;39;20573;-83
2021/12/09 14:50:34;;;;;;;16.70;8.13;;;;;;;6.04;66.43;93798.22;2622378;54;20149;-86
2021/12/09 14:53:56;;;;;;;9.83;7.10;;;;;;;5.60;75.69;93482.75;2620117;54;20148;-83
2021/12/09 14:56:28;;;;;;;7.00;4.83;;;;;;;7.14;62.44;93659.69;2619641;46;20231;-82
2021/12/09 14:59:21;;;;;;;16.53;9.90;;;;;;;8.43;68.34;93804.91;2620131;54;20676;-84
2021/12/09 15:01:53;;;;;;;9.63;8.73;;;;;;;8.46;67.31;93764.09;2620533;46;20149;-85
2021/12/09 15:04:32;;;;;;;10.00;9.03;;;;;;;8.41;69.74;93704.00;2622252;54;20157;-85
2021/12/09 15:07:03;;;;;;;11.60;10.17;;;;;;;7.61;58.85;93643.38;2621501;39;20613;-85
2021/12/09 15:09:42;;;;;;;24.27;12.37;;;;;;;6.46;62.37;93772.91;2620887;54;20249;-84
2021/12/09 15:12:14;;;;;;;11.17;6.13;;;;;;;5.97;70.01;93614.59;2621770;39;20518;-85
2021/12/09 15:15:30;;;;;;;10.77;8.20;;;;;;;5.43;62.12;93475.16;2620722;47;20149;-85
2021/12/09 15:18:06;;;;;;;14.00;10.80;;;;;;;6.18;64.03;93550.59;2620313;46;20153;-84
2021/12/09 15:27:15;;;;;;;23.63;15.38;;;;;;;6.60;61.03;93748.78;2620139;46;20955;-85
2021/12/09 15:30:28;;;;;;;16.13;11.63;;;;;;;3.35;64.08;93425.03;2618977;47;20153;-81
2021/12/09 15:36:34;;;;;;;6.57;6.07;;;;;;;7.87;65.03;93773.75;2618753;46;20153;-82
2021/12/09 15:39:08;;;;;;;16.40;9.03;;;;;;;6.64;64.82;93642.03;2621256;47;20149;-83
2021/12/09 15:41:39;;;;;;;16.50;12.97;;;;;;;3.29;64.36;93508.72;2619696;54;20145;-83
2021/12/09 15:44:23;;;;;;;27.08;16.92;;;;;;;4.50;78.14;93627.66;2620170;54;20396;-80
2021/12/09 15:46:54;;;;;;;13.63;10.77;;;;;;;7.36;78.82;93766.66;2620741;54;20145;-85
2021/12/09 15:49:32;;;;;;;10.13;8.93;;;;;;;6.63;72.28;93536.50;2621698;46;20155;-83
2021/12/09 15:52:07;;;;;;;16.57;10.40;;;;;;;6.41;60.97;93584.38;2619761;54;20157;-83
2021/12/09 15:54:39;;;;;;;14.83;11.10;;;;;;;7.74;61.44;93752.25;2619530;47;20153;-82
2021/12/09 15:57:15;;;;;;;17.60;9.47;;;;;;;8.31;68.72;93773.53;2619334;46;20236;-82
2021/12/09 15:59:53;;;;;;;13.50;9.33;;;;;;;7.00;59.75;93579.72;2621720;47;20152;-81
2021/12/09 16:02:28;;;;;;;14.17;8.23;;;;;;;5.79;62.51;93756.53;2619689;47;20175;-83
2021/12/09 16:07:42;;;;;;;10.27;7.10;;;;;;;5.05;69.49;93746.81;2619165;47;20187;-82
2021/12/09 16:10:22;;;;;;;11.77;9.27;;;;;;;4.95;68.65;93648.94;2618999;47;20616;-81
2021/12/09 16:12:51;;;;;;;16.33;9.60;;;;;;;5.56;76.90;93508.59;2619397;54;20710;-82
2021/12/09 16:15:21;;;;;;;12.73;11.47;;;;;;;7.68;70.37;93735.16;2618993;47;20252;-81
2021/12/09 16:17:53;;;;;;;9.87;8.83;;;;;;;6.73;71.54;93575.44;2618680;47;20452;-81
2021/12/09 16:20:32;;;;;;;7.47;6.80;;;;;;;7.48;70.48;93617.69;2618550;47;20152;-82
2021/12/09 16:23:06;;;;;;;9.50;6.80;;;;;;;7.94;72.27;93639.31;2618651;47;20759;-82
2021/12/09 16:25:35;;;;;;;11.23;10.23;;;;;;;8.23;69.71;93702.78;2618954;47;20149;-80
2021/12/09 16:28:04;;;;;;;23.90;8.93;;;;;;;7.64;72.14;93653.34;2618959;47;20161;-82
2021/12/09 16:30:33;;;;;;;13.70;10.83;;;;;;;7.43;67.47;93635.16;2619132;54;20826;-82
2021/12/09 16:33:02;;;;;;;10.43;7.97;;;;;;;7.63;70.21;93609.63;2618973;47;20236;-82
2021/12/09 16:35:33;;;;;;;11.53;10.50;;;;;;;8.51;67.30;93743.03;2618941;47;20153;-82
2021/12/09 16:38:02;;;;;;;9.90;8.70;;;;;;;7.34;69.33;93575.06;2618906;47;20248;-84
2021/12/09 16:40:43;;;;;;;14.30;11.87;;;;;;;7.29;67.88;93584.78;2619491;39;20579;-82
2021/12/09 16:43:16;;;;;;;11.40;9.57;;;;;;;6.86;69.81;93532.22;2618860;47;20153;-82
2021/12/09 16:45:57;;;;;;;;;;;;;;;;;;;;;
2021/12/09 16:48:29;;;;;;;18.87;10.87;;;;;;;7.22;65.25;93447.31;2618979;54;20153;-82
2021/12/09 16:50:58;;;;;;;12.53;11.27;;;;;;;7.97;58.65;93567.50;2618943;54;20149;-82
2021/12/09 16:53:32;;;;;;;17.73;9.73;;;;;;;8.73;65.59;93725.94;2619036;54;20204;-83
2021/12/09 16:56:12;;;;;;;14.23;11.37;;;;;;;7.41;65.78;93581.56;2618994;47;20149;-84
2021/12/09 16:58:58;;;;;;;9.43;8.63;;;;;;;7.73;67.67;93590.88;2618899;54;20153;-83
2021/12/09 17:01:29;;;;;;;13.97;9.00;;;;;;;5.73;58.68;93408.72;2618974;54;20149;-83
2021/12/09 17:04:08;;;;;;;12.10;8.93;;;;;;;4.06;61.71;93348.53;2618559;54;20145;-83
2021/12/09 17:06:37;;;;;;;25.87;18.90;;;;;;;3.29;66.47;93547.16;2618563;47;20145;-82
2021/12/09 17:09:07;;;;;;;12.00;10.80;;;;;;;1.77;72.27;93544.03;2618008;47;20153;-83
2021/12/09 17:11:42;;;;;;;5.80;5.43;;;;;;;3.82;83.57;93684.47;2618251;47;20152;-85
2021/12/09 17:14:21;;;;;;;9.60;6.97;;;;;;;4.79;82.72;93634.28;2618395;47;20145;-83
2021/12/09 17:17:08;;;;;;;7.73;6.87;;;;;;;5.54;78.40;93521.84;2618316;54;20156;-81
2021/12/09 17:19:39;;;;;;;6.50;5.93;;;;;;;7.63;70.63;93730.78;2618054;47;20168;-83
2021/12/09 17:22:08;;;;;;;15.43;10.47;;;;;;;7.95;74.30;93709.13;2618264;54;20161;-85
2021/12/09 17:25:08;;;;;;;9.67;7.57;;;;;;;7.36;70.35;93532.16;2617993;54;20152;-83
2021/12/09 17:27:43;;;;;;;14.07;12.83;;;;;;;5.77;60.23;93523.28;2618539;47;20284;-83
2021/12/09 17:30:14;;;;;;;12.20;7.57;;;;;;;5.33;61.96;93554.13;2619137;47;20160;-82
2021/12/09 17:32:44;;;;;;;6.83;6.23;;;;;;;7.41;73.42;93666.06;2619692;54;20149;-84
2021/12/09 17:35:21;;;;;;;8.03;6.50;;;;;;;6.19;61.35;93465.59;2618667;54;20149;-83
2021/12/09 17:37:53;;;;;;;22.27;10.63;;;;;;;3.36;65.01;93426.47;2618927;54;20714;-83
2021/12/09 17:40:23;;;;;;;11.10;8.00;;;;;;;3.71;67.38;93581.78;2618178;47;20184;-83
2021/12/09 17:42:55;;;;;;;10.30;6.53;;;;;;;3.12;83.77;93369.56;2618493;39;20549;-82
2021/12/09 17:45:25;;;;;;;13.83;9.53;;;;;;;4.63;69.25;93704.53;2618064;47;20152;-85
2021/12/09 17:48:09;;;;;;;14.47;7.23;;;;;;;2.73;70.15;93463.06;2618399;54;20156;-83
2021/12/09 17:50:40;;;;;;;7.30;5.10;;;;;;;5.17;73.28;93672.22;2618617;47;20149;-83
2021/12/09 17:53:18;;;;;;;7.00;6.23;;;;;;;6.43;80.23;93688.47;2618502;54;20153;-83
2021/12/09 17:55:50;;;;;;;10.87;6.50;;;;;;;6.18;74.11;93511.22;2618311;54;20782;-83
2021/12/09 17:58:21;;;;;;;29.80;10.00;;;;;;;8.20;71.30;93704.84;2618236;54;20145;-82
2021/12/09 18:00:52;;;;;;;12.97;11.70;;;;;;;6.32;58.91;93529.25;2618259;54;20173;-84
2021/12/09 18:03:21;;;;;;;10.40;9.20;;;;;;;4.46;67.37;93444.53;2618397;54;20156;-83
2021/12/09 18:05:51;;;;;;;6.40;5.83;;;;;;;6.06;71.31;93492.63;2618125;47;20192;-83
2021/12/09 18:08:26;;;;;;;11.03;9.83;;;;;;;5.57;61.91;93479.16;2618490;47;20178;-82
2021/12/09 18:10:58;;;;;;;11.33;6.93;;;;;;;8.10;70.25;93684.84;2621028;54;20162;-83
2021/12/09 18:13:32;;;;;;;8.37;7.03;;;;;;;6.81;67.95;93499.72;2619000;39;20637;-83
2021/12/09 18:16:06;;;;;;;7.97;6.47;;;;;;;8.78;72.51;93683.03;2617993;54;20192;-83
2021/12/09 18:18:49;;;;;;;8.40;6.83;;;;;;;7.41;70.78;93486.50;2618443;47;20144;-83
2021/12/09 18:21:18;;;;;;;27.70;10.90;;;;;;;9.08;67.70;93707.69;2618382;47;20149;-84
2021/12/09 18:24:01;;;;;;;7.47;5.73;;;;;;;7.76;67.25;93524.00;2618257;47;20145;-83
2021/12/09 18:26:31;;;;;;;6.90;6.20;;;;;;;9.22;69.68;93682.59;2617715;47;20153;-82
2021/12/09 18:29:04;;;;;;;7.37;6.77;;;;;;;8.61;67.09;93630.41;2617691;54;20149;-83
2021/12/09 18:31:44;;;;;;;9.67;6.43;;;;;;;8.49;66.89;93616.72;2617875;54;20157;-82
2021/12/09 18:34:22;;;;;;;8.07;6.23;;;;;;;6.12;63.44;93390.19;2618342;47;20145;-83
2021/12/09 18:36:54;;;;;;;5.93;5.50;;;;;;;7.35;64.60;93640.56;2618053;54;20155;-83
2021/12/09 18:39:23;;;;;;;5.40;5.03;;;;;;;7.51;68.31;93648.75;2618022;47;20145;-84
2021/12/09 18:41:52;;;;;;;4.30;4.03;;;;;;;6.55;63.39;93501.78;2617862;47;20145;-83
2021/12/09 18:44:29;;;;;;;6.83;3.37;;;;;;;7.87;68.17;93620.81;2618553;39;20634;-83
2021/12/09 18:47:06;;;;;;;14.40;7.70;;;;;;;7.96;70.94;93578.06;2618155;54;20152;-84
2021/12/09 18:49:35;;;;;;;13.37;8.17;;;;;;;6.47;58.24;93616.84;2617903;54;20192;-82
2021/12/09 18:52:03;;;;;;;13.80;7.33;;;;;;;4.89;67.39;93525.28;2617764;47;20164;-82
2021/12/09 18:54:32;;;;;;;7.80;5.83;;;;;;;5.81;75.39;93439.13;2617553;47;20184;-83
2021/12/09 18:57:01;;;;;;;6.93;4.93;;;;;;;5.59;60.36;93484.84;2618443;39;20637;-82
2021/12/09 18:59:34;;;;;;;10.27;9.20;;;;;;;6.30;67.19;93483.47;2617857;54;20392;-81
2021/12/09 19:08:14;;;;;;;9.55;8.55;;;;;;;4.72;62.56;93529.59;2624973;47;21308;-83
2021/12/09 19:10:44;;;;;;;7.77;6.87;;;;;;;2.37;68.16;93534.88;2618386;47;20152;-85
2021/12/09 19:13:13;;;;;;;3.67;3.47;;;;;;;3.03;73.51;93563.56;2619517;47;20153;-84
2021/12/09 19:15:51;;;;;;;9.73;5.97;;;;;;;0.61;72.87;93426.94;2620938;47;20249;-82
2021/12/09 19:18:31;;;;;;;4.73;4.33;;;;;;;-0.58;76.18;93337.41;2619844;47;20148;-84
2021/12/09 19:24:09;;;;;;;11.67;5.83;;;;;;;0.96;75.90;93489.91;2619280;47;20656;-85
2021/12/09 19:26:52;;;;;;;3.27;3.07;;;;;;;-0.87;76.88;93315.75;2619508;47;20212;-85
2021/12/09 19:41:46;;;;;;;5.83;4.10;;;;;;;2.97;65.54;93340.31;2619328;46;20148;-86
2021/12/09 19:51:05;;;;;;;;;;;;;;;;;;;;;
2021/12/09 20:00:01;;;;;;;5.90;3.83;;;;;;;5.83;74.33;93534.72;2617356;47;20153;-81
2021/12/09 20:09:00;;;;;;;2.80;2.70;;;;;;;1.34;72.89;93295.81;2617510;47;20244;-83
2021/12/09 20:17:48;;;;;;;4.67;4.47;;;;;;;5.28;69.44;93462.75;2618035;47;20164;-82
2021/12/09 20:31:29;;;;;;;2.73;2.53;;;;;;;7.33;73.52;93648.97;2607940;54;20197;-84
2021/12/09 20:47:22;;;;;;;3.07;2.90;;;;;;;4.64;74.83;93492.84;2609715;54;20268;-81
2021/12/09 20:53:20;;;;;;;6.43;3.33;;;;;;;4.63;71.36;93289.53;2617708;46;20167;-83
2021/12/09 20:58:54;;;;;;;9.93;8.02;;;;;;;7.80;73.65;93640.38;2617502;47;20407;-83
2021/12/09 21:01:24;;;;;;;3.57;2.90;;;;;;;6.54;72.87;93343.56;2617183;47;20149;-81
2021/12/09 21:03:56;;;;;;;4.00;3.80;;;;;;;6.54;71.30;93309.09;2619596;47;20148;-86
2021/12/09 21:06:36;;;;;;;5.53;5.03;;;;;;;7.60;65.05;93639.13;2623283;47;20279;-86
2021/12/09 21:11:42;;;;;;;9.63;6.20;;;;;;;6.84;60.79;93571.53;2613658;54;20196;-82
2021/12/09 21:14:24;;;;;;;6.27;4.60;;;;;;;6.42;72.79;93467.66;2618496;54;20149;-84
2021/12/09 21:23:17;;;;;;;4.27;3.97;;;;;;;2.69;72.78;93462.91;2617484;46;20183;-83
2021/12/09 21:25:48;;;;;;;4.77;2.03;;;;;;;2.74;77.12;93461.72;2618117;47;20204;-82
2021/12/09 21:28:25;;;;;;;1.23;1.23;;;;;;;3.20;82.90;93330.69;2618365;47;20163;-82
2021/12/09 21:34:02;;;;;;;4.37;2.67;;;;;;;4.72;68.66;93378.16;2617662;47;20156;-81
2021/12/09 21:36:50;;;;;;;3.27;2.70;;;;;;;7.01;73.42;93606.50;2618848;47;20148;-84
2021/12/09 21:39:34;;;;;;;4.03;3.03;;;;;;;7.90;70.74;93645.56;2623660;47;20165;-85
2021/12/09 21:42:22;;;;;;;3.00;2.90;;;;;;;5.69;62.52;93347.50;2627617;47;20693;-85
2021/12/09 21:44:51;;;;;;;4.00;3.70;;;;;;;6.76;68.41;93484.81;2628091;47;20141;-86
2021/12/09 21:47:37;;;;;;;1.67;1.57;;;;;;;5.40;65.30;93412.59;2624829;47;20184;-85
2021/12/09 21:50:07;;;;;;;4.07;3.77;;;;;;;6.67;69.45;93527.47;2627169;47;20633;-86
2021/12/09 21:52:38;;;;;;;2.37;2.27;;;;;;;6.00;70.12;93390.56;2621386;47;20160;-80
2021/12/09 21:57:54;;;;;;;2.00;1.90;;;;;;;7.43;71.25;93502.75;2623522;39;20552;-84
2021/12/09 22:00:25;;;;;;;2.37;2.27;;;;;;;8.10;71.07;93581.22;2621092;54;20157;-83
2021/12/09 22:02:55;;;;;;;2.83;2.73;;;;;;;7.20;69.72;93442.34;2621686;54;20152;-82
2021/12/09 22:05:30;;;;;;;2.27;2.20;;;;;;;5.62;63.44;93291.81;2617277;47;20145;-82
2021/12/09 22:08:11;;;;;;;2.80;2.67;;;;;;;7.52;63.68;93569.19;2617582;47;20165;-81
2021/12/09 22:10:40;;;;;;;3.63;3.43;;;;;;;8.32;69.86;93603.66;2618614;47;20156;-84
2021/12/09 22:13:10;;;;;;;3.60;2.70;;;;;;;6.52;68.19;93325.91;2619235;54;20145;-84
2021/12/09 22:15:53;;;;;;;2.73;2.53;;;;;;;8.93;68.94;93641.72;2617931;47;20176;-84
2021/12/09 22:18:22;;;;;;;2.63;2.43;;;;;;;9.27;68.82;93642.47;2618643;47;20668;-83
2021/12/09 22:20:51;;;;;;;3.10;2.90;;;;;;;8.34;67.17;93564.16;2619309;54;20149;-84
2021/12/09 22:23:33;;;;;;;;;;;;;;;;;;;;;
2021/12/09 22:26:02;;;;;;;2.33;2.27;;;;;;;8.25;67.48;93508.94;2621820;31;20653;-83
2021/12/09 22:28:31;;;;;;;5.03;4.07;;;;;;;8.08;55.76;93634.75;2620586;54;20265;-81
2021/12/09 22:31:03;;;;;;;2.93;2.73;;;;;;;5.34;62.77;93556.31;2617577;47;20157;-79
2021/12/09 22:33:32;;;;;;;3.43;3.27;;;;;;;3.90;66.27;93396.28;2617745;47;20145;-83
2021/12/09 22:36:00;;;;;;;9.37;3.70;;;;;;;6.47;75.05;93468.50;2619153;47;20157;-81
2021/12/09 22:38:38;;;;;;;3.57;3.27;;;;;;;6.64;63.25;93638.50;2620592;46;20153;-84
2021/12/09 22:41:11;;;;;;;3.90;3.70;;;;;;;5.54;74.15;93541.50;2619376;54;20152;-85
2021/12/09 22:43:41;;;;;;;2.50;2.40;;;;;;;5.56;67.96;93401.88;2622281;54;20192;-85
2021/12/09 22:46:10;;;;;;;3.67;2.47;;;;;;;7.43;73.29;93511.91;2624773;47;20161;-84
2021/12/09 22:48:40;;;;;;;2.53;2.43;;;;;;;7.53;71.37;93463.56;2626588;54;20151;-85
2021/12/09 22:51:15;;;;;;;3.03;2.93;;;;;;;5.10;63.55;93302.19;2626278;46;20153;-86
2021/12/09 22:53:50;;;;;;;3.13;2.93;;;;;;;5.93;62.42;93566.69;2626265;46;20156;-82
2021/12/09 22:56:22;;;;;;;3.83;2.77;;;;;;;4.08;66.56;93472.63;2614413;46;20246;-86
2021/12/09 22:58:51;;;;;;;2.77;2.67;;;;;;;3.86;71.41;93510.97;2628765;39;20589;-81
2021/12/09 23:01:25;;;;;;;3.90;3.33;;;;;;;3.94;70.22;93617.75;2618315;47;20176;-81
2021/12/09 23:03:58;;;;;;;1.53;1.53;;;;;;;4.00;73.75;93514.31;2618141;47;20234;-80
2021/12/09 23:09:12;;;;;;;2.37;2.17;;;;;;;4.59;68.13;93538.94;2617959;47;20168;-81
2021/12/09 23:11:46;;;;;;;3.73;2.47;;;;;;;4.49;73.59;93580.63;2618233;54;20176;-81
2021/12/09 23:14:23;;;;;;;3.03;1.63;;;;;;;3.36;70.32;93395.69;2618279;46;20168;-83
2021/12/09 23:16:54;;;;;;;2.57;2.37;;;;;;;3.36;70.13;93423.66;2618388;47;20695;-82
2021/12/09 23:19:24;;;;;;;2.13;1.10;;;;;;;3.60;72.72;93535.84;2618358;47;20219;-83
2021/12/09 23:22:15;;;;;;;1.53;1.53;;;;;;;2.54;73.81;93237.28;2618177;47;20169;-80
2021/12/09 23:24:47;;;;;;;16.93;2.23;;;;;;;5.59;70.86;93571.19;2618062;47;20150;-80
2021/12/09 23:27:16;;;;;;;2.10;2.03;;;;;;;3.54;70.01;93360.00;2619610;39;20553;-85
2021/12/09 23:29:55;;;;;;;1.00;1.00;;;;;;;5.62;72.92;93413.28;2618607;47;20160;-82
2021/12/09 23:32:24;;;;;;;2.37;2.17;;;;;;;7.58;74.59;93563.00;2619304;39;20608;-81
2021/12/09 23:34:53;;;;;;;1.97;1.87;;;;;;;8.04;74.74;93518.34;2618152;47;20153;-79
2021/12/09 23:37:22;;;;;;;1.70;1.60;;;;;;;7.00;62.42;93543.84;2618376;47;20157;-81
2021/12/09 23:39:53;;;;;;;1.87;1.77;;;;;;;6.80;73.20;93435.66;2618767;47;20145;-80
2021/12/09 23:42:22;;;;;;;2.57;2.47;;;;;;;7.84;71.37;93465.72;2618221;54;20149;-80
2021/12/09 23:44:50;;;;;;;5.03;3.07;;;;;;;8.01;64.67;93561.97;2618365;39;20527;-82
2021/12/09 23:47:19;;;;;;;1.70;1.60;;;;;;;6.43;66.03;93401.63;2618374;47;20208;-81
2021/12/09 23:49:52;;;;;;;1.60;1.47;;;;;;;7.03;66.26;93561.53;2618153;47;20192;-81
2021/12/09 23:52:32;;;;;;;2.30;1.70;;;;;;;5.44;64.25;93429.59;2617973;47;20153;-82
2021/12/09 23:55:04;;;;;;;2.40;2.30;;;;;;;4.77;67.42;93410.56;2618373;46;20184;-82
2021/12/09 23:57:43;;;;;;;1.80;1.80;;;;;;;5.40;67.99;93572.66;2621654;47;20169;-86
